Time;durP1;ratioP1;P1;durP2;ratioP2;P2;SDS_P1;SDS_P2;PMS_P1;PMS_P2;Temp;Humidity;BMP_temperature;BMP_pressure;BME280_temperature;BME280_humidity;BME280_pressure;Samples;Min_cycle;Max_cycle;Signal;HPM_P1;HPM_P2
2022/03/17 00:01:12;;;;;;;125.07;71.68;;;;;;;;;;5052173;28;20029;-65
2022/03/17 00:03:37;;;;;;;88.63;60.20;;;;;;;;;;5052252;28;20017;-65
2022/03/17 00:06:03;;;;;;;112.50;71.03;;;;;;;;;;5053427;28;20478;-60
2022/03/17 00:08:28;;;;;;;102.60;64.15;;;;;;;;;;5053330;28;20020;-60
2022/03/17 00:10:54;;;;;;;129.40;79.07;;;;;;;;;;5053392;28;20485;-61
2022/03/17 00:13:19;;;;;;;122.75;71.25;;;;;;;;;;5053082;28;20433;-60
2022/03/17 00:15:45;;;;;;;91.03;55.65;;;;;;;;;;5053349;28;20033;-60
2022/03/17 00:18:11;;;;;;;121.07;75.07;;;;;;;;;;5052059;28;20052;-60
2022/03/17 00:20:37;;;;;;;110.20;69.15;;;;;;;;;;5052933;28;20447;-60
2022/03/17 00:23:03;;;;;;;77.50;50.30;;;;;;;;;;5051997;28;20108;-60
2022/03/17 00:25:29;;;;;;;107.20;63.42;;;;;;;;;;5052462;28;20040;-62
2022/03/17 00:27:55;;;;;;;92.55;55.03;;;;;;;;;;5053044;28;20033;-60
2022/03/17 00:30:21;;;;;;;104.65;59.95;;;;;;;;;;5052030;28;20033;-60
2022/03/17 00:32:46;;;;;;;123.38;68.28;;;;;;;;;;5052994;28;20043;-65
2022/03/17 00:37:57;;;;;;;102.25;61.20;;;;;;;;;;5057174;28;20029;-60
2022/03/17 00:40:23;;;;;;;110.95;61.90;;;;;;;;;;5057027;28;20024;-60
2022/03/17 00:42:49;;;;;;;101.93;55.47;;;;;;;;;;5057139;28;20402;-60
2022/03/17 00:45:15;;;;;;;73.40;45.60;;;;;;;;;;5056925;28;20020;-60
2022/03/17 00:47:40;;;;;;;98.20;57.72;;;;;;;;;;5055471;28;20198;-60
2022/03/17 00:50:07;;;;;;;76.38;48.17;;;;;;;;;;5056703;28;20024;-60
2022/03/17 00:52:32;;;;;;;91.50;53.35;;;;;;;;;;5056593;28;20398;-60
2022/03/17 00:54:59;;;;;;;109.05;63.80;;;;;;;;;;5056862;28;20013;-59
2022/03/17 00:57:31;;;;;;;92.75;57.50;;;;;;;;;;5056450;28;20029;-60
2022/03/17 00:59:56;;;;;;;91.57;55.63;;;;;;;;;;5056591;28;20033;-60
2022/03/17 01:02:21;;;;;;;99.55;60.60;;;;;;;;;;5056633;28;20032;-60
2022/03/17 01:04:47;;;;;;;80.95;49.60;;;;;;;;;;5056540;28;20040;-60
2022/03/17 01:07:13;;;;;;;89.07;55.17;;;;;;;;;;5056365;28;20560;-60
2022/03/17 01:09:38;;;;;;;83.80;53.78;;;;;;;;;;5056372;28;20037;-60
2022/03/17 01:12:04;;;;;;;82.65;51.28;;;;;;;;;;5056562;28;20025;-60
2022/03/17 01:14:29;;;;;;;63.15;44.80;;;;;;;;;;5056347;28;20029;-60
2022/03/17 01:16:55;;;;;;;73.57;48.70;;;;;;;;;;5055328;28;20021;-60
2022/03/17 01:19:21;;;;;;;80.75;52.28;;;;;;;;;;5056309;28;20021;-60
2022/03/17 01:21:49;;;;;;;74.85;49.97;;;;;;;;;;5054956;28;20025;-65
2022/03/17 01:24:15;;;;;;;68.30;44.42;;;;;;;;;;5055055;28;20123;-64
2022/03/17 01:26:41;;;;;;;72.25;46.60;;;;;;;;;;5055947;28;20128;-65
2022/03/17 01:29:07;;;;;;;68.43;44.83;;;;;;;;;;5056179;28;20099;-64
2022/03/17 01:31:32;;;;;;;63.28;43.47;;;;;;;;;;5056043;28;20036;-64
2022/03/17 01:33:58;;;;;;;62.05;41.47;;;;;;;;;;5056105;28;20052;-64
2022/03/17 01:36:24;;;;;;;71.80;47.35;;;;;;;;;;5056078;28;20036;-64
2022/03/17 01:38:50;;;;;;;61.65;42.75;;;;;;;;;;5055919;28;20463;-64
2022/03/17 01:41:16;;;;;;;65.72;46.70;;;;;;;;;;5055665;28;20437;-61
2022/03/17 01:43:43;;;;;;;61.95;41.25;;;;;;;;;;5055738;28;20021;-60
2022/03/17 01:46:11;;;;;;;64.20;43.25;;;;;;;;;;5055604;28;20020;-60
2022/03/17 01:48:38;;;;;;;63.50;44.88;;;;;;;;;;5055856;28;20073;-60
2022/03/17 01:51:03;;;;;;;60.78;42.97;;;;;;;;;;5055543;28;20020;-60
2022/03/17 01:53:28;;;;;;;62.75;42.33;;;;;;;;;;5055403;28;20055;-60
2022/03/17 01:55:54;;;;;;;65.25;41.67;;;;;;;;;;5055601;28;20063;-60
2022/03/17 01:58:20;;;;;;;65.68;44.30;;;;;;;;;;5054378;28;20425;-61
2022/03/17 02:00:48;;;;;;;60.95;40.95;;;;;;;;;;5054553;28;20021;-61
2022/03/17 02:03:13;;;;;;;65.93;43.00;;;;;;;;;;5055932;28;20036;-60
2022/03/17 02:05:39;;;;;;;60.67;42.55;;;;;;;;;;5055351;28;20116;-60
2022/03/17 02:08:06;;;;;;;65.05;44.00;;;;;;;;;;5055386;28;20041;-64
2022/03/17 02:13:08;;;;;;;58.30;40.40;;;;;;;;;;5055374;28;20028;-64
2022/03/17 02:13:17;;;;;;;60.70;40.53;;;;;;;;;;5054105;28;20102;-64
2022/03/17 02:15:43;;;;;;;61.00;41.35;;;;;;;;;;5055197;28;20017;-64
2022/03/17 02:18:08;;;;;;;58.45;40.45;;;;;;;;;;5055051;28;20026;-64
2022/03/17 02:20:36;;;;;;;64.95;43.72;;;;;;;;;;5055111;28;20467;-64
2022/03/17 02:25:57;;;;;;;67.78;45.42;;;;;;;;;;5054688;28;20045;-60
2022/03/17 02:28:23;;;;;;;65.95;44.55;;;;;;;;;;5054898;28;20074;-60
2022/03/17 02:30:48;;;;;;;67.47;43.25;;;;;;;;;;5054818;28;20116;-60
2022/03/17 02:33:17;;;;;;;64.93;43.50;;;;;;;;;;5055017;28;20135;-60
2022/03/17 02:35:47;;;;;;;67.43;44.55;;;;;;;;;;5054952;28;20029;-61
2022/03/17 02:38:14;;;;;;;71.10;45.20;;;;;;;;;;5054834;28;20021;-60
2022/03/17 02:40:40;;;;;;;65.85;43.05;;;;;;;;;;5054643;28;20561;-59
2022/03/17 02:43:07;;;;;;;66.03;43.33;;;;;;;;;;5054842;28;20017;-60
2022/03/17 02:45:33;;;;;;;63.63;43.05;;;;;;;;;;5054892;28;20115;-60
2022/03/17 02:47:59;;;;;;;60.85;40.70;;;;;;;;;;5054871;28;20027;-60
2022/03/17 02:50:24;;;;;;;62.50;42.85;;;;;;;;;;5054651;28;20025;-60
2022/03/17 02:52:50;;;;;;;62.97;43.40;;;;;;;;;;5054109;28;20387;-59
2022/03/17 02:55:15;;;;;;;62.47;43.95;;;;;;;;;;5054362;28;20082;-60
2022/03/17 02:57:41;;;;;;;60.65;43.22;;;;;;;;;;5053787;28;20024;-61
2022/03/17 03:00:08;;;;;;;60.97;40.45;;;;;;;;;;5054479;28;20123;-61
2022/03/17 03:02:34;;;;;;;61.38;40.35;;;;;;;;;;5054326;28;20025;-61
2022/03/17 03:04:59;;;;;;;57.92;41.70;;;;;;;;;;5054028;28;20435;-60
2022/03/17 03:07:25;;;;;;;61.47;40.97;;;;;;;;;;5054115;28;20045;-60
2022/03/17 03:09:51;;;;;;;60.03;39.92;;;;;;;;;;5054065;28;20025;-59
2022/03/17 03:12:16;;;;;;;58.05;40.53;;;;;;;;;;5054104;28;20029;-60
2022/03/17 03:14:42;;;;;;;57.45;38.97;;;;;;;;;;5054170;28;20455;-60
2022/03/17 03:17:07;;;;;;;58.50;40.70;;;;;;;;;;5052915;28;20024;-60
2022/03/17 03:19:33;;;;;;;59.17;41.00;;;;;;;;;;5054058;28;20040;-60
2022/03/17 03:21:59;;;;;;;56.75;39.55;;;;;;;;;;5053897;28;20017;-60
2022/03/17 03:24:24;;;;;;;56.40;39.72;;;;;;;;;;5053947;28;20180;-60
2022/03/17 03:26:51;;;;;;;59.05;40.83;;;;;;;;;;5053487;28;20044;-60
2022/03/17 03:29:23;;;;;;;57.80;38.88;;;;;;;;;;5052380;28;20044;-60
2022/03/17 03:31:53;;;;;;;57.90;39.92;;;;;;;;;;5054112;28;20040;-60
2022/03/17 03:34:19;;;;;;;59.25;39.35;;;;;;;;;;5052771;28;20399;-60
2022/03/17 03:39:29;;;;;;;54.83;38.25;;;;;;;;;;5054045;28;20033;-60
2022/03/17 03:41:54;;;;;;;56.38;39.30;;;;;;;;;;5052381;28;20032;-60
2022/03/17 03:44:20;;;;;;;57.70;39.65;;;;;;;;;;5053812;28;20041;-60
2022/03/17 03:46:45;;;;;;;57.88;38.17;;;;;;;;;;5053897;28;20088;-60
2022/03/17 03:49:11;;;;;;;58.10;38.88;;;;;;;;;;5052623;28;20061;-60
2022/03/17 03:51:36;;;;;;;59.85;37.67;;;;;;;;;;5053333;28;20056;-64
2022/03/17 03:54:15;;;;;;;54.17;37.97;;;;;;;;;;5053471;28;20387;-65
2022/03/17 03:56:42;;;;;;;58.63;37.47;;;;;;;;;;5053519;28;20218;-64
2022/03/17 03:59:08;;;;;;;53.92;36.92;;;;;;;;;;5053583;28;20096;-64
2022/03/17 04:01:34;;;;;;;54.92;36.80;;;;;;;;;;5053527;28;20033;-64
2022/03/17 04:04:01;;;;;;;56.22;38.53;;;;;;;;;;5053083;28;20071;-64
2022/03/17 04:06:27;;;;;;;58.03;37.75;;;;;;;;;;5053512;28;20025;-64
2022/03/17 04:08:52;;;;;;;58.70;39.17;;;;;;;;;;5051228;28;20017;-64
2022/03/17 04:11:18;;;;;;;61.60;38.30;;;;;;;;;;5053542;28;20029;-64
2022/03/17 04:13:43;;;;;;;56.63;38.78;;;;;;;;;;5053430;28;20045;-65
2022/03/17 04:16:09;;;;;;;57.45;37.03;;;;;;;;;;5053398;28;20455;-65
2022/03/17 04:18:35;;;;;;;55.47;36.83;;;;;;;;;;5053159;28;20501;-65
2022/03/17 04:21:03;;;;;;;54.67;38.20;;;;;;;;;;5053012;28;20033;-64
2022/03/17 04:23:29;;;;;;;59.42;39.33;;;;;;;;;;5053071;28;20379;-64
2022/03/17 04:25:54;;;;;;;52.80;37.67;;;;;;;;;;5052311;28;20045;-65
2022/03/17 04:28:20;;;;;;;56.45;38.17;;;;;;;;;;5053077;28;20382;-65
2022/03/17 04:30:45;;;;;;;55.92;37.75;;;;;;;;;;5053079;28;20044;-65
2022/03/17 04:33:11;;;;;;;58.05;40.42;;;;;;;;;;5053023;28;20021;-65
2022/03/17 04:35:37;;;;;;;58.08;40.03;;;;;;;;;;5053126;28;20031;-64
2022/03/17 04:38:02;;;;;;;57.55;39.95;;;;;;;;;;5052963;28;20021;-64
2022/03/17 04:40:28;;;;;;;54.38;39.28;;;;;;;;;;5052859;28;20498;-65
2022/03/17 04:42:55;;;;;;;52.80;36.85;;;;;;;;;;5052697;28;20025;-66
2022/03/17 04:45:21;;;;;;;53.42;36.92;;;;;;;;;;5052967;28;20368;-65
2022/03/17 04:47:46;;;;;;;53.33;37.65;;;;;;;;;;5053347;28;20057;-65
2022/03/17 04:50:12;;;;;;;56.72;38.05;;;;;;;;;;5052786;28;20033;-65
2022/03/17 04:55:22;;;;;;;53.47;39.13;;;;;;;;;;5052928;28;20041;-65
2022/03/17 04:57:47;;;;;;;53.83;37.53;;;;;;;;;;5052743;28;20021;-64
2022/03/17 05:00:13;;;;;;;51.65;37.22;;;;;;;;;;5052383;28;20025;-65
2022/03/17 05:02:39;;;;;;;50.20;37.20;;;;;;;;;;5052752;28;20021;-64
2022/03/17 05:05:04;;;;;;;50.47;36.95;;;;;;;;;;5052685;28;20033;-64
2022/03/17 05:07:30;;;;;;;49.08;36.40;;;;;;;;;;5052559;28;20113;-64
2022/03/17 05:09:55;;;;;;;53.72;38.45;;;;;;;;;;5052459;28;20059;-65
2022/03/17 05:12:21;;;;;;;55.95;37.67;;;;;;;;;;5052493;28;20340;-65
2022/03/17 05:14:47;;;;;;;52.63;36.95;;;;;;;;;;5052433;28;20029;-64
2022/03/17 05:17:12;;;;;;;50.55;35.75;;;;;;;;;;5052368;28;20383;-64
2022/03/17 05:19:38;;;;;;;52.70;35.88;;;;;;;;;;5051548;28;20025;-64
2022/03/17 05:22:03;;;;;;;56.53;38.33;;;;;;;;;;5055520;28;20027;-65
2022/03/17 05:24:30;;;;;;;161.70;94.13;;;;;;;;;;5055279;28;20033;-64
2022/03/17 05:26:57;;;;;;;142.57;91.68;;;;;;;;;;5055916;28;20419;-65
2022/03/17 05:29:23;;;;;;;68.40;45.85;;;;;;;;;;5055991;28;20036;-64
2022/03/17 05:31:48;;;;;;;86.80;63.22;;;;;;;;;;5055008;28;20024;-65
2022/03/17 05:34:14;;;;;;;65.25;45.67;;;;;;;;;;5055029;28;20052;-64
2022/03/17 05:36:39;;;;;;;58.58;42.63;;;;;;;;;;5055083;28;20025;-64
2022/03/17 05:39:05;;;;;;;54.83;36.70;;;;;;;;;;5055053;28;20063;-64
2022/03/17 05:41:30;;;;;;;56.55;40.10;;;;;;;;;;5055044;28;20036;-65
2022/03/17 05:43:56;;;;;;;54.97;38.72;;;;;;;;;;5055082;28;20433;-64
2022/03/17 05:46:25;;;;;;;54.33;37.38;;;;;;;;;;5054842;28;20024;-64
2022/03/17 05:48:51;;;;;;;54.70;37.45;;;;;;;;;;5055417;28;20029;-64
2022/03/17 05:51:20;;;;;;;53.92;34.45;;;;;;;;;;5055580;28;20028;-64
2022/03/17 05:53:46;;;;;;;57.83;38.57;;;;;;;;;;5055015;28;20075;-64
2022/03/17 05:56:11;;;;;;;54.40;39.83;;;;;;;;;;5054148;28;20021;-64
2022/03/17 05:58:36;;;;;;;52.30;37.72;;;;;;;;;;5055202;28;20147;-64
2022/03/17 06:01:02;;;;;;;53.05;37.83;;;;;;;;;;5054002;28;20036;-64
2022/03/17 06:03:28;;;;;;;51.38;36.40;;;;;;;;;;5055373;28;20025;-64
2022/03/17 06:05:53;;;;;;;54.08;35.72;;;;;;;;;;5055260;28;20039;-64
2022/03/17 06:08:19;;;;;;;52.17;35.08;;;;;;;;;;5055281;28;20033;-64
2022/03/17 06:10:44;;;;;;;56.78;39.85;;;;;;;;;;5053832;28;20029;-64
2022/03/17 06:13:10;;;;;;;56.15;38.17;;;;;;;;;;5054906;28;20124;-64
2022/03/17 06:15:35;;;;;;;55.80;37.85;;;;;;;;;;5055127;28;20024;-64
2022/03/17 06:18:03;;;;;;;55.20;36.63;;;;;;;;;;5055028;28;20017;-64
2022/03/17 06:20:29;;;;;;;52.53;35.53;;;;;;;;;;5054772;28;20010;-64
2022/03/17 06:22:56;;;;;;;50.38;33.90;;;;;;;;;;5054852;28;20036;-64
2022/03/17 06:25:24;;;;;;;54.67;37.03;;;;;;;;;;5052832;28;20102;-65
2022/03/17 06:27:50;;;;;;;48.90;34.30;;;;;;;;;;5053732;28;20498;-64
2022/03/17 06:30:16;;;;;;;48.45;32.28;;;;;;;;;;5054681;28;20074;-64
2022/03/17 06:32:43;;;;;;;48.40;33.38;;;;;;;;;;5053637;28;20120;-64
2022/03/17 06:35:18;;;;;;;52.75;35.78;;;;;;;;;;5053333;28;20020;-64
2022/03/17 06:37:46;;;;;;;50.28;34.78;;;;;;;;;;5054690;28;20029;-64
2022/03/17 06:40:12;;;;;;;49.00;33.70;;;;;;;;;;5053365;28;20107;-64
2022/03/17 06:42:38;;;;;;;47.30;31.83;;;;;;;;;;5054569;28;20029;-64
2022/03/17 06:45:03;;;;;;;45.88;32.10;;;;;;;;;;5053467;28;20025;-64
2022/03/17 06:47:29;;;;;;;54.22;34.10;;;;;;;;;;5053419;28;20417;-64
2022/03/17 06:49:54;;;;;;;45.25;30.27;;;;;;;;;;5053116;28;20060;-64
2022/03/17 06:52:20;;;;;;;47.10;32.70;;;;;;;;;;5054279;28;20041;-64
2022/03/17 06:54:46;;;;;;;49.45;33.92;;;;;;;;;;5052913;28;20017;-64
2022/03/17 06:57:19;;;;;;;46.30;29.92;;;;;;;;;;5052979;28;20029;-64
2022/03/17 06:59:45;;;;;;;48.78;32.45;;;;;;;;;;5054058;28;20086;-64
2022/03/17 07:02:10;;;;;;;45.78;30.20;;;;;;;;;;5054114;28;20025;-64
2022/03/17 07:04:36;;;;;;;43.97;29.58;;;;;;;;;;5054050;28;20028;-64
2022/03/17 07:07:01;;;;;;;43.17;28.38;;;;;;;;;;5054113;28;20021;-64
2022/03/17 07:09:27;;;;;;;43.85;30.58;;;;;;;;;;5054021;28;20036;-64
2022/03/17 07:11:52;;;;;;;42.88;30.25;;;;;;;;;;5053796;28;20036;-64
2022/03/17 07:14:18;;;;;;;44.92;28.38;;;;;;;;;;5053778;28;20025;-64
2022/03/17 07:16:43;;;;;;;37.75;26.13;;;;;;;;;;5053931;28;20051;-64
2022/03/17 07:19:09;;;;;;;38.15;27.25;;;;;;;;;;5052544;28;20029;-64
2022/03/17 07:21:35;;;;;;;42.63;25.88;;;;;;;;;;5053643;28;20021;-64
2022/03/17 07:24:02;;;;;;;38.40;24.92;;;;;;;;;;5053632;28;20483;-64
2022/03/17 07:26:27;;;;;;;38.10;27.92;;;;;;;;;;5053442;28;20055;-64
2022/03/17 07:28:54;;;;;;;37.83;25.50;;;;;;;;;;5053586;28;20032;-64
2022/03/17 07:31:20;;;;;;;37.97;26.02;;;;;;;;;;5052322;28;20368;-64
2022/03/17 07:33:46;;;;;;;33.42;22.92;;;;;;;;;;5052223;28;20119;-64
2022/03/17 07:36:11;;;;;;;37.50;28.58;;;;;;;;;;5053563;28;20517;-64
2022/03/17 07:38:37;;;;;;;60.05;33.15;;;;;;;;;;5053474;28;20024;-64
2022/03/17 07:41:02;;;;;;;45.33;31.17;;;;;;;;;;5053483;28;20070;-64
2022/03/17 07:43:28;;;;;;;36.88;25.50;;;;;;;;;;5052238;28;20033;-64
2022/03/17 07:46:06;;;;;;;33.97;22.35;;;;;;;;;;5052288;28;20021;-64
2022/03/17 07:48:57;;;;;;;31.45;22.48;;;;;;;;;;5053122;28;20072;-64
2022/03/17 07:51:31;;;;;;;32.13;21.70;;;;;;;;;;5052009;28;20024;-64
2022/03/17 07:53:56;;;;;;;32.45;21.85;;;;;;;;;;5053181;28;20047;-64
2022/03/17 07:56:22;;;;;;;29.58;20.75;;;;;;;;;;5053347;28;20463;-64
2022/03/17 07:58:47;;;;;;;31.02;21.90;;;;;;;;;;5053197;28;20072;-64
2022/03/17 08:01:13;;;;;;;27.20;18.45;;;;;;;;;;5053184;28;20021;-64
2022/03/17 08:03:40;;;;;;;27.65;19.45;;;;;;;;;;5053116;28;20043;-64
2022/03/17 08:06:06;;;;;;;24.40;17.52;;;;;;;;;;5053087;28;20018;-64
2022/03/17 08:08:34;;;;;;;26.95;18.20;;;;;;;;;;5053029;28;20033;-64
2022/03/17 08:11:00;;;;;;;30.88;21.92;;;;;;;;;;5052994;28;20028;-64
2022/03/17 08:13:25;;;;;;;21.92;16.42;;;;;;;;;;5051723;28;20091;-64
2022/03/17 08:15:51;;;;;;;30.85;20.77;;;;;;;;;;5053017;28;20027;-64
2022/03/17 08:18:17;;;;;;;23.55;15.10;;;;;;;;;;5051656;28;20036;-64
2022/03/17 08:20:43;;;;;;;21.85;14.10;;;;;;;;;;5052915;28;20021;-64
2022/03/17 08:23:09;;;;;;;25.38;16.90;;;;;;;;;;5052937;28;20079;-64
2022/03/17 08:25:35;;;;;;;22.33;16.63;;;;;;;;;;5052469;28;20045;-64
2022/03/17 08:28:03;;;;;;;20.17;14.68;;;;;;;;;;5053010;28;20508;-64
2022/03/17 08:30:30;;;;;;;21.75;15.05;;;;;;;;;;5052899;28;20029;-64
2022/03/17 08:32:56;;;;;;;22.48;15.00;;;;;;;;;;5052766;28;20033;-64
2022/03/17 08:35:22;;;;;;;24.17;15.90;;;;;;;;;;5052804;28;20111;-64
2022/03/17 08:37:47;;;;;;;16.75;13.05;;;;;;;;;;5052713;28;20115;-64
2022/03/17 08:40:13;;;;;;;20.27;13.10;;;;;;;;;;5052923;28;20095;-64
2022/03/17 08:42:40;;;;;;;18.23;12.93;;;;;;;;;;5052835;28;20028;-64
2022/03/17 08:49:18;;;;;;;21.30;14.15;;;;;;;;;;5052908;28;20032;-64
2022/03/17 08:50:40;;;;;;;20.55;13.52;;;;;;;;;;5051662;28;20394;-64
2022/03/17 08:53:06;;;;;;;19.80;13.85;;;;;;;;;;5052579;28;20021;-64
2022/03/17 08:55:31;;;;;;;25.42;14.18;;;;;;;;;;5054106;28;20036;-64
2022/03/17 08:57:57;;;;;;;19.55;13.77;;;;;;;;;;5056405;28;20526;-64
2022/03/17 09:00:23;;;;;;;15.68;11.48;;;;;;;;;;5056395;28;20116;-64
2022/03/17 09:02:48;;;;;;;18.50;13.77;;;;;;;;;;5056410;28;20021;-64
2022/03/17 09:05:14;;;;;;;14.15;10.68;;;;;;;;;;5056302;28;20399;-64
2022/03/17 09:07:40;;;;;;;23.38;13.30;;;;;;;;;;5054941;28;20494;-64
2022/03/17 09:10:06;;;;;;;18.33;12.05;;;;;;;;;;5054958;28;20025;-64
2022/03/17 09:12:33;;;;;;;18.45;12.63;;;;;;;;;;5056066;28;20094;-65
2022/03/17 09:14:59;;;;;;;17.02;11.95;;;;;;;;;;5056086;28;20024;-64
2022/03/17 09:17:24;;;;;;;21.88;14.30;;;;;;;;;;5056144;28;20074;-64
2022/03/17 09:19:50;;;;;;;20.35;11.27;;;;;;;;;;5056065;28;20027;-65
2022/03/17 09:22:15;;;;;;;18.10;10.68;;;;;;;;;;5056023;28;20017;-65
2022/03/17 09:24:40;;;;;;;16.10;10.70;;;;;;;;;;5055997;28;20029;-64
2022/03/17 09:27:06;;;;;;;18.90;12.63;;;;;;;;;;5055773;28;20045;-64
2022/03/17 09:29:32;;;;;;;52.88;29.23;;;;;;;;;;5055788;28;20033;-64
2022/03/17 09:31:58;;;;;;;19.42;12.77;;;;;;;;;;5055501;28;20017;-65
2022/03/17 09:34:24;;;;;;;17.30;13.05;;;;;;;;;;5055940;28;20033;-64
2022/03/17 09:36:49;;;;;;;23.80;14.02;;;;;;;;;;5054572;28;20032;-64
2022/03/17 09:41:59;;;;;;;16.90;10.15;;;;;;;;;;5055881;28;20036;-64
2022/03/17 09:44:24;;;;;;;22.83;15.15;;;;;;;;;;5055779;28;20017;-64
2022/03/17 09:46:50;;;;;;;15.95;12.23;;;;;;;;;;5055587;28;20375;-64
2022/03/17 09:49:16;;;;;;;17.15;11.98;;;;;;;;;;5055439;28;20021;-64
2022/03/17 09:51:42;;;;;;;14.32;11.73;;;;;;;;;;5055545;28;20037;-65
2022/03/17 09:54:08;;;;;;;17.63;12.07;;;;;;;;;;5055490;28;20021;-64
2022/03/17 09:56:33;;;;;;;13.98;10.77;;;;;;;;;;5055412;28;20386;-64
2022/03/17 09:58:59;;;;;;;14.48;11.15;;;;;;;;;;5055398;28;20021;-65
2022/03/17 10:01:28;;;;;;;14.75;11.57;;;;;;;;;;5055303;28;20048;-64
2022/03/17 10:03:58;;;;;;;12.52;9.00;;;;;;;;;;5055326;28;20029;-64
2022/03/17 10:06:24;;;;;;;15.40;10.82;;;;;;;;;;5055121;28;20028;-64
2022/03/17 10:08:50;;;;;;;15.02;10.98;;;;;;;;;;5055234;28;20082;-64
2022/03/17 10:11:18;;;;;;;15.93;11.23;;;;;;;;;;5055248;28;20101;-65
2022/03/17 10:13:45;;;;;;;13.18;9.77;;;;;;;;;;5055050;28;20017;-64
2022/03/17 10:16:17;;;;;;;14.05;10.48;;;;;;;;;;5055051;28;20025;-64
2022/03/17 10:18:43;;;;;;;12.07;10.43;;;;;;;;;;5053772;28;20021;-64
2022/03/17 10:21:12;;;;;;;16.40;12.07;;;;;;;;;;5054997;28;20094;-64
2022/03/17 10:23:52;;;;;;;13.80;10.40;;;;;;;;;;5054992;28;20033;-64
2022/03/17 10:26:54;;;;;;;15.88;11.55;;;;;;;;;;5054124;28;20122;-64
2022/03/17 10:29:21;;;;;;;17.65;12.13;;;;;;;;;;5052803;28;20041;-64
2022/03/17 10:31:57;;;;;;;14.68;11.93;;;;;;;;;;5054098;28;20037;-64
2022/03/17 10:34:24;;;;;;;17.30;12.13;;;;;;;;;;5053482;28;20522;-64
2022/03/17 10:36:49;;;;;;;14.95;11.30;;;;;;;;;;5054656;28;20021;-64
2022/03/17 10:39:15;;;;;;;14.30;10.73;;;;;;;;;;5054666;28;20398;-64
2022/03/17 10:41:41;;;;;;;16.63;11.85;;;;;;;;;;5054550;28;20067;-64
2022/03/17 10:44:16;;;;;;;17.48;13.00;;;;;;;;;;5054456;28;20037;-64
2022/03/17 10:46:55;;;;;;;21.73;14.30;;;;;;;;;;5054624;28;20032;-65
2022/03/17 10:49:21;;;;;;;16.90;13.25;;;;;;;;;;5053168;28;20033;-64
2022/03/17 10:51:46;;;;;;;26.02;16.55;;;;;;;;;;5054328;28;20021;-64
2022/03/17 10:54:15;;;;;;;21.33;15.32;;;;;;;;;;5054359;28;20025;-64
2022/03/17 10:56:41;;;;;;;21.02;14.52;;;;;;;;;;5053270;28;20031;-65
2022/03/17 10:59:09;;;;;;;17.85;13.82;;;;;;;;;;5054302;28;20029;-65
2022/03/17 11:01:47;;;;;;;20.40;14.55;;;;;;;;;;5052916;28;20029;-64
2022/03/17 11:04:12;;;;;;;22.40;16.15;;;;;;;;;;5053145;28;20029;-65
2022/03/17 11:06:39;;;;;;;20.20;16.00;;;;;;;;;;5052731;28;20077;-64
2022/03/17 11:09:05;;;;;;;22.92;14.85;;;;;;;;;;5052732;28;20042;-64
2022/03/17 11:11:31;;;;;;;23.67;14.93;;;;;;;;;;5054026;28;20021;-64
2022/03/17 11:13:57;;;;;;;19.48;14.52;;;;;;;;;;5053978;28;20041;-64
2022/03/17 11:16:24;;;;;;;17.88;13.10;;;;;;;;;;5052628;28;20032;-64
2022/03/17 11:18:50;;;;;;;19.25;12.68;;;;;;;;;;5053414;28;20094;-64
2022/03/17 11:21:20;;;;;;;16.08;12.23;;;;;;;;;;5052384;28;20049;-64
2022/03/17 11:23:55;;;;;;;17.08;14.43;;;;;;;;;;5053757;28;20029;-64
2022/03/17 11:26:21;;;;;;;19.92;13.40;;;;;;;;;;5052066;28;20057;-64
2022/03/17 11:28:48;;;;;;;18.90;14.88;;;;;;;;;;5053763;28;20029;-65
2022/03/17 11:31:17;;;;;;;22.08;17.65;;;;;;;;;;5052411;28;20048;-64
2022/03/17 11:33:43;;;;;;;17.63;14.07;;;;;;;;;;5035726;28;20023;-64
2022/03/17 11:36:08;;;;;;;17.77;12.25;;;;;;;;;;5053471;28;20112;-64
2022/03/17 11:38:37;;;;;;;20.98;15.70;;;;;;;;;;5053497;28;20021;-64
2022/03/17 11:41:07;;;;;;;18.85;15.10;;;;;;;;;;5053566;28;20039;-65
2022/03/17 11:43:59;;;;;;;18.45;15.20;;;;;;;;;;5052208;28;20029;-64
2022/03/17 11:46:34;;;;;;;33.85;26.95;;;;;;;;;;5053510;28;20479;-64
2022/03/17 11:49:15;;;;;;;26.65;21.45;;;;;;;;;;5053432;28;20643;-64
2022/03/17 11:51:50;;;;;;;22.00;19.80;;;;;;;;;;5053389;28;20131;-64
2022/03/17 11:54:16;;;;;;;18.63;15.15;;;;;;;;;;5053340;28;20470;-65
2022/03/17 11:56:43;;;;;;;26.50;14.93;;;;;;;;;;5052163;28;20013;-65
2022/03/17 11:59:09;;;;;;;20.33;14.55;;;;;;;;;;5053370;28;20029;-64
2022/03/17 12:01:39;;;;;;;20.60;13.85;;;;;;;;;;5053178;28;20025;-64
2022/03/17 12:04:05;;;;;;;17.35;13.73;;;;;;;;;;5053129;28;20029;-64
2022/03/17 12:06:35;;;;;;;15.43;12.23;;;;;;;;;;5051911;28;20028;-64
2022/03/17 12:09:10;;;;;;;17.55;12.65;;;;;;;;;;5051790;28;20032;-64
2022/03/17 12:11:38;;;;;;;14.70;11.20;;;;;;;;;;5053098;28;20025;-64
2022/03/17 12:14:23;;;;;;;16.95;12.50;;;;;;;;;;5052674;28;20028;-65
2022/03/17 12:16:51;;;;;;;20.23;14.60;;;;;;;;;;5053079;28;20055;-65
2022/03/17 12:19:33;;;;;;;24.88;14.27;;;;;;;;;;5052831;28;20013;-65
2022/03/17 12:21:58;;;;;;;14.70;12.20;;;;;;;;;;5052958;28;20391;-64
2022/03/17 12:24:33;;;;;;;18.02;12.55;;;;;;;;;;5052892;28;20021;-64
2022/03/17 12:27:13;;;;;;;16.92;12.15;;;;;;;;;;5051493;28;20052;-64
2022/03/17 12:29:40;;;;;;;15.27;11.75;;;;;;;;;;5053043;28;20029;-64
2022/03/17 12:32:17;;;;;;;16.25;12.23;;;;;;;;;;5055853;28;20036;-64
2022/03/17 12:34:46;;;;;;;13.30;11.38;;;;;;;;;;5056985;28;20021;-64
2022/03/17 12:37:12;;;;;;;15.45;10.77;;;;;;;;;;5056934;28;20463;-64
2022/03/17 12:39:38;;;;;;;14.82;10.65;;;;;;;;;;5056795;28;20072;-64
2022/03/17 12:42:27;;;;;;;15.57;10.98;;;;;;;;;;5055785;28;20162;-65
2022/03/17 12:45:06;;;;;;;16.92;11.60;;;;;;;;;;5052697;28;20106;-65
2022/03/17 12:47:33;;;;;;;12.57;10.05;;;;;;;;;;5056847;28;20372;-65
2022/03/17 12:49:59;;;;;;;14.63;10.13;;;;;;;;;;5056740;28;20021;-65
2022/03/17 12:52:26;;;;;;;14.52;11.57;;;;;;;;;;5056636;28;20502;-65
2022/03/17 12:54:56;;;;;;;11.45;9.57;;;;;;;;;;5055360;28;20020;-64
2022/03/17 12:57:23;;;;;;;11.67;9.67;;;;;;;;;;5038725;28;20028;-64
2022/03/17 12:59:48;;;;;;;17.42;11.68;;;;;;;;;;5056465;28;20291;-64
2022/03/17 13:02:16;;;;;;;18.13;10.63;;;;;;;;;;5056558;28;20420;-64
2022/03/17 13:04:42;;;;;;;17.20;11.45;;;;;;;;;;5056532;28;20110;-64
2022/03/17 13:07:08;;;;;;;11.98;9.32;;;;;;;;;;5056035;28;20033;-64
2022/03/17 13:09:34;;;;;;;11.40;9.57;;;;;;;;;;5056609;28;20024;-64
2022/03/17 13:14:47;;;;;;;11.25;8.77;;;;;;;;;;5056346;28;20057;-64
2022/03/17 13:17:12;;;;;;;9.70;8.80;;;;;;;;;;5056268;28;20013;-64
2022/03/17 13:19:49;;;;;;;8.73;7.70;;;;;;;;;;5056140;28;20082;-65
2022/03/17 13:22:21;;;;;;;11.98;8.50;;;;;;;;;;5056192;28;20033;-65
2022/03/17 13:24:58;;;;;;;12.38;9.30;;;;;;;;;;5056114;28;20033;-65
2022/03/17 13:27:27;;;;;;;12.38;8.75;;;;;;;;;;5053724;28;20047;-64
2022/03/17 13:29:53;;;;;;;11.35;8.90;;;;;;;;;;5054820;28;20035;-65
2022/03/17 13:32:21;;;;;;;9.52;7.20;;;;;;;;;;5054558;28;20111;-64
2022/03/17 13:34:56;;;;;;;11.02;7.78;;;;;;;;;;5053371;28;20429;-65
2022/03/17 13:37:31;;;;;;;8.45;6.63;;;;;;;;;;5054701;28;20047;-65
2022/03/17 13:39:59;;;;;;;13.23;8.48;;;;;;;;;;5054597;28;20450;-65
2022/03/17 13:42:25;;;;;;;11.45;8.40;;;;;;;;;;5054275;28;20017;-64
2022/03/17 13:44:53;;;;;;;11.60;8.40;;;;;;;;;;5053311;28;20523;-64
2022/03/17 13:47:21;;;;;;;12.07;9.23;;;;;;;;;;5036810;28;20387;-65
2022/03/17 13:50:05;;;;;;;10.27;7.50;;;;;;;;;;5054610;28;20126;-64
2022/03/17 13:52:31;;;;;;;13.07;8.40;;;;;;;;;;5054328;28;20025;-64
2022/03/17 13:54:56;;;;;;;18.13;11.52;;;;;;;;;;5054290;28;20028;-64
2022/03/17 13:57:22;;;;;;;14.15;9.13;;;;;;;;;;5054300;28;20033;-64
2022/03/17 13:59:47;;;;;;;12.93;9.25;;;;;;;;;;5053097;28;20460;-65
2022/03/17 14:02:13;;;;;;;13.82;10.35;;;;;;;;;;5054266;28;20029;-64
2022/03/17 14:04:51;;;;;;;9.85;8.85;;;;;;;;;;5054151;28;20044;-64
2022/03/17 14:07:16;;;;;;;13.77;9.57;;;;;;;;;;5054279;28;20036;-65
2022/03/17 14:09:42;;;;;;;28.10;17.80;;;;;;;;;;5054077;28;20066;-64
2022/03/17 14:12:07;;;;;;;27.88;17.20;;;;;;;;;;5054061;28;20115;-65
2022/03/17 14:14:36;;;;;;;11.95;9.82;;;;;;;;;;5054061;28;20013;-65
2022/03/17 14:17:01;;;;;;;12.07;8.98;;;;;;;;;;5054035;28;20040;-65
2022/03/17 14:19:27;;;;;;;11.07;9.27;;;;;;;;;;5053950;28;20455;-65
2022/03/17 14:24:38;;;;;;;8.93;6.88;;;;;;;;;;5053924;28;20491;-65
2022/03/17 14:27:03;;;;;;;21.80;19.23;;;;;;;;;;5008104;28;1336103;-64
2022/03/17 14:29:29;;;;;;;13.80;12.23;;;;;;;;;;5054967;28;20475;-64
2022/03/17 14:31:54;;;;;;;42.42;35.55;;;;;;;;;;5054637;28;20029;-64
2022/03/17 14:34:22;;;;;;;15.25;12.73;;;;;;;;;;5053502;28;20074;-65
2022/03/17 14:36:47;;;;;;;50.95;31.25;;;;;;;;;;5054654;28;20021;-64
2022/03/17 14:39:13;;;;;;;52.90;28.92;;;;;;;;;;5053309;28;20449;-64
2022/03/17 14:41:39;;;;;;;138.88;72.28;;;;;;;;;;5054590;28;20049;-64